sensor_id;sensor_type;location;lat;lon;timestamp;temperature;humidity
29281;DHT22;25048;49.590;11.026;2023-03-23T00:00:13;8.10;99.90
29281;DHT22;25048;49.590;11.026;2023-03-23T00:02:41;8.10;99.90
29281;DHT22;25048;49.590;11.026;2023-03-23T00:05:10;8.20;99.90
29281;DHT22;25048;49.590;11.026;2023-03-23T00:07:37;8.20;99.90
29281;DHT22;25048;49.590;11.026;2023-03-23T00:10:07;8.20;99.90
29281;DHT22;25048;49.590;11.026;2023-03-23T00:12:34;8.20;99.90
29281;DHT22;25048;49.590;11.026;2023-03-23T00:15:04;8.30;99.90
29281;DHT22;25048;49.590;11.026;2023-03-23T00:17:32;8.40;99.90
29281;DHT22;25048;49.590;11.026;2023-03-23T00:20:03;8.40;99.90
29281;DHT22;25048;49.590;11.026;2023-03-23T00:22:33;8.40;99.90
29281;DHT22;25048;49.590;11.026;2023-03-23T00:25:05;8.40;99.90
29281;DHT22;25048;49.590;11.026;2023-03-23T00:27:31;8.50;99.90
29281;DHT22;25048;49.590;11.026;2023-03-23T00:29:59;8.60;99.90
29281;DHT22;25048;49.590;11.026;2023-03-23T00:32:26;8.70;99.90
29281;DHT22;25048;49.590;11.026;2023-03-23T00:34:56;8.70;99.90
29281;DHT22;25048;49.590;11.026;2023-03-23T00:37:26;8.80;99.90
29281;DHT22;25048;49.590;11.026;2023-03-23T00:39:54;8.90;99.90
29281;DHT22;25048;49.590;11.026;2023-03-23T00:42:24;8.90;99.90
29281;DHT22;25048;49.590;11.026;2023-03-23T00:44:52;9.10;99.90
29281;DHT22;25048;49.590;11.026;2023-03-23T00:47:21;9.10;99.90
29281;DHT22;25048;49.590;11.026;2023-03-23T00:49:49;9.20;99.90
29281;DHT22;25048;49.590;11.026;2023-03-23T00:52:18;9.30;99.90
29281;DHT22;25048;49.590;11.026;2023-03-23T00:54:45;9.50;99.90
29281;DHT22;25048;49.590;11.026;2023-03-23T00:57:13;9.60;99.90
29281;DHT22;25048;49.590;11.026;2023-03-23T00:59:40;9.60;99.90
29281;DHT22;25048;49.590;11.026;2023-03-23T01:02:08;9.70;99.90
29281;DHT22;25048;49.590;11.026;2023-03-23T01:04:40;9.80;99.90
29281;DHT22;25048;49.590;11.026;2023-03-23T01:07:09;9.80;99.90
29281;DHT22;25048;49.590;11.026;2023-03-23T01:09:39;9.70;99.90
29281;DHT22;25048;49.590;11.026;2023-03-23T01:12:08;9.70;99.90
29281;DHT22;25048;49.590;11.026;2023-03-23T01:14:36;9.80;99.90
29281;DHT22;25048;49.590;11.026;2023-03-23T01:17:03;9.80;99.90
29281;DHT22;25048;49.590;11.026;2023-03-23T01:19:31;9.80;99.90
29281;DHT22;25048;49.590;11.026;2023-03-23T01:21:58;9.80;99.90
29281;DHT22;25048;49.590;11.026;2023-03-23T01:24:26;9.80;99.90
29281;DHT22;25048;49.590;11.026;2023-03-23T01:26:53;9.80;99.90
29281;DHT22;25048;49.590;11.026;2023-03-23T01:29:21;9.80;99.90
29281;DHT22;25048;49.590;11.026;2023-03-23T01:31:48;9.80;99.90
29281;DHT22;25048;49.590;11.026;2023-03-23T01:34:16;9.80;99.90
29281;DHT22;25048;49.590;11.026;2023-03-23T01:36:44;9.90;99.90
29281;DHT22;25048;49.590;11.026;2023-03-23T01:39:11;9.90;99.90
29281;DHT22;25048;49.590;11.026;2023-03-23T01:41:39;9.90;99.90
29281;DHT22;25048;49.590;11.026;2023-03-23T01:46:46;9.90;99.90
29281;DHT22;25048;49.590;11.026;2023-03-23T01:49:22;9.90;99.90
29281;DHT22;25048;49.590;11.026;2023-03-23T01:51:51;9.90;99.90
29281;DHT22;25048;49.590;11.026;2023-03-23T01:54:17;9.90;99.90
29281;DHT22;25048;49.590;11.026;2023-03-23T01:56:50;9.90;99.90
29281;DHT22;25048;49.590;11.026;2023-03-23T01:59:18;9.90;99.90
29281;DHT22;25048;49.590;11.026;2023-03-23T02:01:46;9.80;99.90
29281;DHT22;25048;49.590;11.026;2023-03-23T02:04:15;9.80;99.90
29281;DHT22;25048;49.590;11.026;2023-03-23T02:06:43;9.80;99.90
29281;DHT22;25048;49.590;11.026;2023-03-23T02:09:12;9.80;99.90
29281;DHT22;25048;49.590;11.026;2023-03-23T02:11:40;9.70;99.90
29281;DHT22;25048;49.590;11.026;2023-03-23T02:14:07;9.70;99.90
29281;DHT22;25048;49.590;11.026;2023-03-23T02:16:57;9.70;99.90
29281;DHT22;25048;49.590;11.026;2023-03-23T02:19:41;9.70;99.90
29281;DHT22;25048;49.590;11.026;2023-03-23T02:22:38;9.70;99.90
29281;DHT22;25048;49.590;11.026;2023-03-23T02:33:31;9.70;99.90
29281;DHT22;25048;49.590;11.026;2023-03-23T02:36:23;9.70;99.90
29281;DHT22;25048;49.590;11.026;2023-03-23T02:39:08;9.70;99.90
29281;DHT22;25048;49.590;11.026;2023-03-23T02:41:43;9.70;99.90
29281;DHT22;25048;49.590;11.026;2023-03-23T02:44:12;9.70;99.90
29281;DHT22;25048;49.590;11.026;2023-03-23T02:46:42;9.70;99.90
29281;DHT22;25048;49.590;11.026;2023-03-23T02:49:12;9.70;99.90
29281;DHT22;25048;49.590;11.026;2023-03-23T02:51:43;9.70;99.90
29281;DHT22;25048;49.590;11.026;2023-03-23T02:54:13;9.80;99.90
29281;DHT22;25048;49.590;11.026;2023-03-23T02:56:42;9.80;99.90
29281;DHT22;25048;49.590;11.026;2023-03-23T02:59:11;9.80;99.90
29281;DHT22;25048;49.590;11.026;2023-03-23T03:04:14;10.00;99.90
29281;DHT22;25048;49.590;11.026;2023-03-23T03:09:54;10.00;99.90
29281;DHT22;25048;49.590;11.026;2023-03-23T03:15:07;10.10;99.90
29281;DHT22;25048;49.590;11.026;2023-03-23T03:17:36;10.10;99.90
29281;DHT22;25048;49.590;11.026;2023-03-23T03:20:07;10.10;99.90
29281;DHT22;25048;49.590;11.026;2023-03-23T03:22:42;10.10;99.90
29281;DHT22;25048;49.590;11.026;2023-03-23T03:25:11;10.10;99.90
29281;DHT22;25048;49.590;11.026;2023-03-23T03:27:41;10.10;99.90
29281;DHT22;25048;49.590;11.026;2023-03-23T03:30:12;10.20;99.90
29281;DHT22;25048;49.590;11.026;2023-03-23T03:32:47;10.20;99.90
29281;DHT22;25048;49.590;11.026;2023-03-23T03:35:15;10.20;99.90
29281;DHT22;25048;49.590;11.026;2023-03-23T03:37:44;10.30;99.90
29281;DHT22;25048;49.590;11.026;2023-03-23T03:40:16;10.30;99.90
29281;DHT22;25048;49.590;11.026;2023-03-23T03:42:44;10.30;99.90
29281;DHT22;25048;49.590;11.026;2023-03-23T03:45:15;10.30;99.90
29281;DHT22;25048;49.590;11.026;2023-03-23T03:47:43;10.30;99.90
29281;DHT22;25048;49.590;11.026;2023-03-23T03:50:11;10.40;99.90
29281;DHT22;25048;49.590;11.026;2023-03-23T03:52:39;10.40;99.90
29281;DHT22;25048;49.590;11.026;2023-03-23T03:55:07;10.40;99.90
29281;DHT22;25048;49.590;11.026;2023-03-23T03:57:35;10.40;99.90
29281;DHT22;25048;49.590;11.026;2023-03-23T04:00:04;10.40;99.90
29281;DHT22;25048;49.590;11.026;2023-03-23T04:02:34;10.50;99.90
29281;DHT22;25048;49.590;11.026;2023-03-23T04:05:02;10.40;99.90
29281;DHT22;25048;49.590;11.026;2023-03-23T04:07:29;10.40;99.90
29281;DHT22;25048;49.590;11.026;2023-03-23T04:09:57;10.40;99.90
29281;DHT22;25048;49.590;11.026;2023-03-23T04:12:25;10.50;99.90
29281;DHT22;25048;49.590;11.026;2023-03-23T04:14:52;10.50;99.90
29281;DHT22;25048;49.590;11.026;2023-03-23T04:17:19;10.50;99.90
29281;DHT22;25048;49.590;11.026;2023-03-23T04:19:47;10.50;99.90
29281;DHT22;25048;49.590;11.026;2023-03-23T04:22:14;10.50;99.90
29281;DHT22;25048;49.590;11.026;2023-03-23T04:24:43;10.40;99.90
29281;DHT22;25048;49.590;11.026;2023-03-23T04:27:10;10.40;99.90
29281;DHT22;25048;49.590;11.026;2023-03-23T04:29:39;10.50;99.90
29281;DHT22;25048;49.590;11.026;2023-03-23T04:32:07;10.50;99.90
29281;DHT22;25048;49.590;11.026;2023-03-23T04:34:35;10.50;99.90
29281;DHT22;25048;49.590;11.026;2023-03-23T04:37:02;10.50;99.90
29281;DHT22;25048;49.590;11.026;2023-03-23T04:39:30;10.50;99.90
29281;DHT22;25048;49.590;11.026;2023-03-23T04:41:59;10.50;99.90
29281;DHT22;25048;49.590;11.026;2023-03-23T04:44:28;10.50;99.90
29281;DHT22;25048;49.590;11.026;2023-03-23T04:46:55;10.50;99.90
29281;DHT22;25048;49.590;11.026;2023-03-23T04:49:23;10.60;99.90
29281;DHT22;25048;49.590;11.026;2023-03-23T04:51:50;10.60;99.90
29281;DHT22;25048;49.590;11.026;2023-03-23T04:54:18;10.60;99.90
29281;DHT22;25048;49.590;11.026;2023-03-23T04:56:46;10.50;99.90
29281;DHT22;25048;49.590;11.026;2023-03-23T04:59:13;10.50;99.90
29281;DHT22;25048;49.590;11.026;2023-03-23T05:01:41;10.60;99.90
29281;DHT22;25048;49.590;11.026;2023-03-23T05:04:10;10.60;99.90
29281;DHT22;25048;49.590;11.026;2023-03-23T05:06:40;10.60;99.90
29281;DHT22;25048;49.590;11.026;2023-03-23T05:09:09;10.70;99.90
29281;DHT22;25048;49.590;11.026;2023-03-23T05:11:36;10.70;99.90
29281;DHT22;25048;49.590;11.026;2023-03-23T05:14:05;10.80;99.90
29281;DHT22;25048;49.590;11.026;2023-03-23T05:16:33;10.80;99.90
29281;DHT22;25048;49.590;11.026;2023-03-23T05:19:03;10.70;99.90
29281;DHT22;25048;49.590;11.026;2023-03-23T05:21:31;10.80;99.90
29281;DHT22;25048;49.590;11.026;2023-03-23T05:23:59;10.70;99.90
29281;DHT22;25048;49.590;11.026;2023-03-23T05:26:27;10.70;99.90
29281;DHT22;25048;49.590;11.026;2023-03-23T05:28:56;10.70;99.90
29281;DHT22;25048;49.590;11.026;2023-03-23T05:31:25;10.60;99.90
29281;DHT22;25048;49.590;11.026;2023-03-23T05:33:53;10.60;99.90
29281;DHT22;25048;49.590;11.026;2023-03-23T05:36:20;10.80;99.90
29281;DHT22;25048;49.590;11.026;2023-03-23T05:38:51;10.90;99.90
29281;DHT22;25048;49.590;11.026;2023-03-23T05:41:18;10.90;99.90
29281;DHT22;25048;49.590;11.026;2023-03-23T05:43:46;11.00;99.90
29281;DHT22;25048;49.590;11.026;2023-03-23T05:46:13;11.00;99.90
29281;DHT22;25048;49.590;11.026;2023-03-23T05:48:41;11.10;99.90
29281;DHT22;25048;49.590;11.026;2023-03-23T05:51:08;11.10;99.90
29281;DHT22;25048;49.590;11.026;2023-03-23T05:53:36;11.20;99.90
29281;DHT22;25048;49.590;11.026;2023-03-23T05:56:06;11.20;99.90
29281;DHT22;25048;49.590;11.026;2023-03-23T05:58:34;11.30;99.90
29281;DHT22;25048;49.590;11.026;2023-03-23T06:01:07;11.30;99.90
29281;DHT22;25048;49.590;11.026;2023-03-23T06:03:34;11.40;99.90
29281;DHT22;25048;49.590;11.026;2023-03-23T06:06:03;11.50;99.90
29281;DHT22;25048;49.590;11.026;2023-03-23T06:08:31;11.60;99.90
29281;DHT22;25048;49.590;11.026;2023-03-23T06:10:59;11.70;99.90
29281;DHT22;25048;49.590;11.026;2023-03-23T06:13:27;11.90;99.90
29281;DHT22;25048;49.590;11.026;2023-03-23T06:15:57;11.90;99.90
29281;DHT22;25048;49.590;11.026;2023-03-23T06:18:25;12.00;99.90
29281;DHT22;25048;49.590;11.026;2023-03-23T06:20:54;12.10;99.90
29281;DHT22;25048;49.590;11.026;2023-03-23T06:23:22;12.10;99.90
29281;DHT22;25048;49.590;11.026;2023-03-23T06:25:52;12.20;99.90
29281;DHT22;25048;49.590;11.026;2023-03-23T06:28:19;12.30;99.90
29281;DHT22;25048;49.590;11.026;2023-03-23T06:30:46;12.30;99.90
29281;DHT22;25048;49.590;11.026;2023-03-23T06:33:14;12.50;99.90
29281;DHT22;25048;49.590;11.026;2023-03-23T06:35:41;12.50;99.90
29281;DHT22;25048;49.590;11.026;2023-03-23T06:38:09;12.50;99.90
29281;DHT22;25048;49.590;11.026;2023-03-23T06:40:37;12.50;99.90
29281;DHT22;25048;49.590;11.026;2023-03-23T06:43:05;12.60;99.90
29281;DHT22;25048;49.590;11.026;2023-03-23T06:45:32;12.60;99.90
29281;DHT22;25048;49.590;11.026;2023-03-23T06:48:00;12.60;99.90
29281;DHT22;25048;49.590;11.026;2023-03-23T06:50:27;12.60;99.90
29281;DHT22;25048;49.590;11.026;2023-03-23T06:52:55;12.60;99.90
29281;DHT22;25048;49.590;11.026;2023-03-23T06:55:23;12.70;99.90
29281;DHT22;25048;49.590;11.026;2023-03-23T06:57:51;12.80;99.90
29281;DHT22;25048;49.590;11.026;2023-03-23T07:00:18;12.90;99.90
29281;DHT22;25048;49.590;11.026;2023-03-23T07:02:46;12.90;99.90
29281;DHT22;25048;49.590;11.026;2023-03-23T07:05:14;12.80;99.90
29281;DHT22;25048;49.590;11.026;2023-03-23T07:07:42;12.80;99.90
29281;DHT22;25048;49.590;11.026;2023-03-23T07:10:10;12.70;99.90
29281;DHT22;25048;49.590;11.026;2023-03-23T07:12:38;12.70;99.90
29281;DHT22;25048;49.590;11.026;2023-03-23T07:15:07;12.60;99.90
29281;DHT22;25048;49.590;11.026;2023-03-23T07:17:38;12.60;99.90
29281;DHT22;25048;49.590;11.026;2023-03-23T07:20:07;12.60;99.90
29281;DHT22;25048;49.590;11.026;2023-03-23T07:22:35;12.60;99.90
29281;DHT22;25048;49.590;11.026;2023-03-23T07:25:02;12.70;99.90
29281;DHT22;25048;49.590;11.026;2023-03-23T07:27:30;12.70;99.90
29281;DHT22;25048;49.590;11.026;2023-03-23T07:29:58;12.80;99.90
29281;DHT22;25048;49.590;11.026;2023-03-23T07:32:25;12.90;99.90
29281;DHT22;25048;49.590;11.026;2023-03-23T07:34:53;13.00;99.90
29281;DHT22;25048;49.590;11.026;2023-03-23T07:37:22;13.00;99.90
29281;DHT22;25048;49.590;11.026;2023-03-23T07:39:50;13.10;99.90
29281;DHT22;25048;49.590;11.026;2023-03-23T07:42:17;13.10;99.90
29281;DHT22;25048;49.590;11.026;2023-03-23T07:44:45;13.20;99.90
29281;DHT22;25048;49.590;11.026;2023-03-23T07:47:12;13.30;99.90
29281;DHT22;25048;49.590;11.026;2023-03-23T07:49:40;13.40;99.90
29281;DHT22;25048;49.590;11.026;2023-03-23T07:52:07;13.50;99.90
29281;DHT22;25048;49.590;11.026;2023-03-23T07:54:35;13.70;99.90
29281;DHT22;25048;49.590;11.026;2023-03-23T07:57:03;13.80;99.90
29281;DHT22;25048;49.590;11.026;2023-03-23T07:59:30;13.80;99.90
29281;DHT22;25048;49.590;11.026;2023-03-23T08:01:58;13.90;99.90
29281;DHT22;25048;49.590;11.026;2023-03-23T08:04:25;13.90;99.90
29281;DHT22;25048;49.590;11.026;2023-03-23T08:06:53;13.90;99.90
29281;DHT22;25048;49.590;11.026;2023-03-23T08:09:21;13.80;99.90
29281;DHT22;25048;49.590;11.026;2023-03-23T08:11:49;13.70;99.90
29281;DHT22;25048;49.590;11.026;2023-03-23T08:14:16;13.70;99.90
29281;DHT22;25048;49.590;11.026;2023-03-23T08:16:44;13.60;99.90
29281;DHT22;25048;49.590;11.026;2023-03-23T08:19:12;13.50;99.90
29281;DHT22;25048;49.590;11.026;2023-03-23T08:21:40;13.30;99.90
29281;DHT22;25048;49.590;11.026;2023-03-23T08:24:07;13.20;99.90
29281;DHT22;25048;49.590;11.026;2023-03-23T08:26:35;13.10;99.90
29281;DHT22;25048;49.590;11.026;2023-03-23T08:29:04;13.10;99.90
29281;DHT22;25048;49.590;11.026;2023-03-23T08:31:32;13.00;99.90
29281;DHT22;25048;49.590;11.026;2023-03-23T08:34:01;13.00;99.90
29281;DHT22;25048;49.590;11.026;2023-03-23T08:36:32;12.90;99.90
29281;DHT22;25048;49.590;11.026;2023-03-23T08:39:00;12.90;99.90
29281;DHT22;25048;49.590;11.026;2023-03-23T08:41:30;13.00;99.90
29281;DHT22;25048;49.590;11.026;2023-03-23T08:43:58;13.10;99.90
29281;DHT22;25048;49.590;11.026;2023-03-23T08:46:25;13.20;99.90
29281;DHT22;25048;49.590;11.026;2023-03-23T08:48:52;13.30;99.90
29281;DHT22;25048;49.590;11.026;2023-03-23T08:51:20;13.40;99.90
29281;DHT22;25048;49.590;11.026;2023-03-23T08:53:48;13.50;99.90
29281;DHT22;25048;49.590;11.026;2023-03-23T08:56:15;13.70;99.90
29281;DHT22;25048;49.590;11.026;2023-03-23T08:58:43;13.70;99.90
29281;DHT22;25048;49.590;11.026;2023-03-23T09:01:11;13.80;99.90
29281;DHT22;25048;49.590;11.026;2023-03-23T09:03:38;13.90;99.90
29281;DHT22;25048;49.590;11.026;2023-03-23T09:06:08;14.00;99.90
29281;DHT22;25048;49.590;11.026;2023-03-23T09:08:37;14.10;99.90
29281;DHT22;25048;49.590;11.026;2023-03-23T09:11:08;14.30;99.90
29281;DHT22;25048;49.590;11.026;2023-03-23T09:13:37;14.40;99.90
29281;DHT22;25048;49.590;11.026;2023-03-23T09:16:05;14.50;99.90
29281;DHT22;25048;49.590;11.026;2023-03-23T09:18:33;14.60;99.90
29281;DHT22;25048;49.590;11.026;2023-03-23T09:21:02;14.70;99.90
29281;DHT22;25048;49.590;11.026;2023-03-23T09:23:31;14.70;99.90
29281;DHT22;25048;49.590;11.026;2023-03-23T09:26:01;14.70;99.90
29281;DHT22;25048;49.590;11.026;2023-03-23T09:28:29;14.90;99.90
29281;DHT22;25048;49.590;11.026;2023-03-23T09:30:57;15.00;99.90
29281;DHT22;25048;49.590;11.026;2023-03-23T09:33:26;15.20;99.90
29281;DHT22;25048;49.590;11.026;2023-03-23T09:35:55;15.40;99.90
29281;DHT22;25048;49.590;11.026;2023-03-23T09:38:22;15.70;99.90
29281;DHT22;25048;49.590;11.026;2023-03-23T09:41:02;15.90;99.90
29281;DHT22;25048;49.590;11.026;2023-03-23T09:43:50;16.20;99.90
29281;DHT22;25048;49.590;11.026;2023-03-23T09:46:45;16.50;99.90
29281;DHT22;25048;49.590;11.026;2023-03-23T09:49:23;16.80;99.90
29281;DHT22;25048;49.590;11.026;2023-03-23T09:51:56;16.90;99.90
29281;DHT22;25048;49.590;11.026;2023-03-23T09:54:41;17.00;99.90
29281;DHT22;25048;49.590;11.026;2023-03-23T10:00:09;17.10;99.90
29281;DHT22;25048;49.590;11.026;2023-03-23T10:05:38;17.00;99.90
29281;DHT22;25048;49.590;11.026;2023-03-23T10:08:15;16.90;99.90
29281;DHT22;25048;49.590;11.026;2023-03-23T10:11:08;16.70;99.90
29281;DHT22;25048;49.590;11.026;2023-03-23T10:16:14;16.20;99.90
29281;DHT22;25048;49.590;11.026;2023-03-23T10:18:57;15.90;99.90
29281;DHT22;25048;49.590;11.026;2023-03-23T10:21:16;15.70;99.90
29281;DHT22;25048;49.590;11.026;2023-03-23T10:23:59;15.60;99.90
29281;DHT22;25048;49.590;11.026;2023-03-23T10:26:58;15.40;99.90
29281;DHT22;25048;49.590;11.026;2023-03-23T10:29:34;15.30;99.90
29281;DHT22;25048;49.590;11.026;2023-03-23T10:32:16;15.30;99.90
29281;DHT22;25048;49.590;11.026;2023-03-23T10:34:55;15.30;99.90
29281;DHT22;25048;49.590;11.026;2023-03-23T10:37:29;15.20;99.90
29281;DHT22;25048;49.590;11.026;2023-03-23T10:39:59;15.20;99.90
29281;DHT22;25048;49.590;11.026;2023-03-23T10:42:34;15.30;99.90
29281;DHT22;25048;49.590;11.026;2023-03-23T10:48:14;15.40;99.90
29281;DHT22;25048;49.590;11.026;2023-03-23T10:50:43;15.50;99.90
29281;DHT22;25048;49.590;11.026;2023-03-23T10:53:19;15.70;99.90
29281;DHT22;25048;49.590;11.026;2023-03-23T10:55:43;15.70;99.90
29281;DHT22;25048;49.590;11.026;2023-03-23T10:58:23;15.70;99.90
29281;DHT22;25048;49.590;11.026;2023-03-23T11:00:52;15.50;99.90
29281;DHT22;25048;49.590;11.026;2023-03-23T11:03:25;15.40;99.90
29281;DHT22;25048;49.590;11.026;2023-03-23T11:06:01;15.40;99.90
29281;DHT22;25048;49.590;11.026;2023-03-23T11:08:35;15.30;99.90
29281;DHT22;25048;49.590;11.026;2023-03-23T11:11:14;15.20;99.90
29281;DHT22;25048;49.590;11.026;2023-03-23T11:13:44;15.20;99.90
29281;DHT22;25048;49.590;11.026;2023-03-23T11:16:27;15.40;99.90
29281;DHT22;25048;49.590;11.026;2023-03-23T11:18:55;15.50;99.90
29281;DHT22;25048;49.590;11.026;2023-03-23T11:21:24;15.60;99.90
29281;DHT22;25048;49.590;11.026;2023-03-23T11:23:59;15.70;99.90
29281;DHT22;25048;49.590;11.026;2023-03-23T11:26:34;15.70;99.90
29281;DHT22;25048;49.590;11.026;2023-03-23T11:29:03;15.70;99.90
29281;DHT22;25048;49.590;11.026;2023-03-23T11:31:38;15.70;99.90
29281;DHT22;25048;49.590;11.026;2023-03-23T11:34:21;15.60;99.90
29281;DHT22;25048;49.590;11.026;2023-03-23T11:36:53;15.60;99.90
29281;DHT22;25048;49.590;11.026;2023-03-23T11:39:31;15.50;99.90
29281;DHT22;25048;49.590;11.026;2023-03-23T11:42:02;15.30;99.90
29281;DHT22;25048;49.590;11.026;2023-03-23T11:44:39;15.10;99.90
29281;DHT22;25048;49.590;11.026;2023-03-23T11:50:00;15.10;99.90
29281;DHT22;25048;49.590;11.026;2023-03-23T11:52:41;15.30;99.90
29281;DHT22;25048;49.590;11.026;2023-03-23T11:55:32;15.60;99.90
29281;DHT22;25048;49.590;11.026;2023-03-23T11:57:59;16.00;99.90
29281;DHT22;25048;49.590;11.026;2023-03-23T12:00:25;16.20;99.90
29281;DHT22;25048;49.590;11.026;2023-03-23T12:03:11;16.40;99.90
29281;DHT22;25048;49.590;11.026;2023-03-23T12:11:15;16.50;99.90
29281;DHT22;25048;49.590;11.026;2023-03-23T12:16:32;16.40;99.90
29281;DHT22;25048;49.590;11.026;2023-03-23T12:24:56;16.40;99.90
29281;DHT22;25048;49.590;11.026;2023-03-23T12:27:55;16.50;99.90
29281;DHT22;25048;49.590;11.026;2023-03-23T12:30:32;16.60;99.90
29281;DHT22;25048;49.590;11.026;2023-03-23T12:33:19;16.60;99.90
29281;DHT22;25048;49.590;11.026;2023-03-23T12:41:35;16.60;99.90
29281;DHT22;25048;49.590;11.026;2023-03-23T12:44:06;16.60;99.90
29281;DHT22;25048;49.590;11.026;2023-03-23T12:49:54;16.40;99.90
29281;DHT22;25048;49.590;11.026;2023-03-23T12:52:28;16.30;99.90
29281;DHT22;25048;49.590;11.026;2023-03-23T12:55:17;16.30;99.90
29281;DHT22;25048;49.590;11.026;2023-03-23T13:00:50;16.30;99.90
29281;DHT22;25048;49.590;11.026;2023-03-23T13:03:23;16.10;99.90
29281;DHT22;25048;49.590;11.026;2023-03-23T13:05:54;16.10;99.90
29281;DHT22;25048;49.590;11.026;2023-03-23T13:08:28;16.10;99.90
29281;DHT22;25048;49.590;11.026;2023-03-23T13:10:58;16.20;99.90
29281;DHT22;25048;49.590;11.026;2023-03-23T13:13:39;16.10;99.90
29281;DHT22;25048;49.590;11.026;2023-03-23T13:16:05;15.90;99.90
29281;DHT22;25048;49.590;11.026;2023-03-23T13:21:32;15.80;99.90
29281;DHT22;25048;49.590;11.026;2023-03-23T13:24:05;15.80;99.90
29281;DHT22;25048;49.590;11.026;2023-03-23T13:26:39;15.90;99.90
29281;DHT22;25048;49.590;11.026;2023-03-23T13:29:29;16.10;99.90
29281;DHT22;25048;49.590;11.026;2023-03-23T13:31:45;16.30;99.90
29281;DHT22;25048;49.590;11.026;2023-03-23T13:34:22;16.70;99.90
29281;DHT22;25048;49.590;11.026;2023-03-23T13:36:58;16.90;99.90
29281;DHT22;25048;49.590;11.026;2023-03-23T13:39:35;17.10;99.90
29281;DHT22;25048;49.590;11.026;2023-03-23T13:49:58;17.90;99.90
29281;DHT22;25048;49.590;11.026;2023-03-23T13:52:50;19.20;99.90
29281;DHT22;25048;49.590;11.026;2023-03-23T13:55:39;19.70;99.90
29281;DHT22;25048;49.590;11.026;2023-03-23T14:00:45;19.80;99.90
29281;DHT22;25048;49.590;11.026;2023-03-23T14:03:25;19.70;99.90
29281;DHT22;25048;49.590;11.026;2023-03-23T14:06:07;19.20;99.90
29281;DHT22;25048;49.590;11.026;2023-03-23T14:11:23;18.40;99.90
29281;DHT22;25048;49.590;11.026;2023-03-23T14:14:06;18.00;99.90
29281;DHT22;25048;49.590;11.026;2023-03-23T14:16:40;17.70;99.90
29281;DHT22;25048;49.590;11.026;2023-03-23T14:19:27;17.30;99.90
29281;DHT22;25048;49.590;11.026;2023-03-23T14:21:54;17.20;99.90
29281;DHT22;25048;49.590;11.026;2023-03-23T14:24:25;17.10;99.90
29281;DHT22;25048;49.590;11.026;2023-03-23T14:27:01;17.10;99.90
29281;DHT22;25048;49.590;11.026;2023-03-23T14:29:24;17.10;99.90
29281;DHT22;25048;49.590;11.026;2023-03-23T14:31:57;17.00;99.90
29281;DHT22;25048;49.590;11.026;2023-03-23T14:34:27;17.10;99.90
29281;DHT22;25048;49.590;11.026;2023-03-23T14:36:55;17.00;99.90
29281;DHT22;25048;49.590;11.026;2023-03-23T14:39:26;16.80;99.90
29281;DHT22;25048;49.590;11.026;2023-03-23T14:42:10;16.60;99.90
29281;DHT22;25048;49.590;11.026;2023-03-23T14:44:39;16.60;99.90
29281;DHT22;25048;49.590;11.026;2023-03-23T14:47:15;16.60;99.90
29281;DHT22;25048;49.590;11.026;2023-03-23T14:49:39;16.60;99.90
29281;DHT22;25048;49.590;11.026;2023-03-23T14:52:17;16.50;99.90
29281;DHT22;25048;49.590;11.026;2023-03-23T14:54:45;16.50;99.90
29281;DHT22;25048;49.590;11.026;2023-03-23T14:59:53;16.20;99.90
29281;DHT22;25048;49.590;11.026;2023-03-23T15:02:30;16.20;99.90
29281;DHT22;25048;49.590;11.026;2023-03-23T15:04:59;16.10;99.90
29281;DHT22;25048;49.590;11.026;2023-03-23T15:07:30;16.10;99.90
29281;DHT22;25048;49.590;11.026;2023-03-23T15:09:58;16.00;99.90
29281;DHT22;25048;49.590;11.026;2023-03-23T15:12:28;16.00;99.90
29281;DHT22;25048;49.590;11.026;2023-03-23T15:15:02;16.00;99.90
29281;DHT22;25048;49.590;11.026;2023-03-23T15:17:34;16.30;99.90
29281;DHT22;25048;49.590;11.026;2023-03-23T15:20:11;16.50;99.90
29281;DHT22;25048;49.590;11.026;2023-03-23T15:22:44;16.70;99.90
29281;DHT22;25048;49.590;11.026;2023-03-23T15:25:28;16.80;99.90
29281;DHT22;25048;49.590;11.026;2023-03-23T15:27:54;16.90;99.90
29281;DHT22;25048;49.590;11.026;2023-03-23T15:30:35;17.00;99.90
29281;DHT22;25048;49.590;11.026;2023-03-23T15:33:08;17.20;99.90
29281;DHT22;25048;49.590;11.026;2023-03-23T15:35:38;17.30;99.90
29281;DHT22;25048;49.590;11.026;2023-03-23T15:38:19;17.30;99.90
29281;DHT22;25048;49.590;11.026;2023-03-23T15:40:49;17.30;99.90
29281;DHT22;25048;49.590;11.026;2023-03-23T15:43:22;17.20;99.90
29281;DHT22;25048;49.590;11.026;2023-03-23T15:45:56;17.00;99.90
29281;DHT22;25048;49.590;11.026;2023-03-23T15:48:25;16.80;99.90
29281;DHT22;25048;49.590;11.026;2023-03-23T15:50:54;16.80;99.90
29281;DHT22;25048;49.590;11.026;2023-03-23T15:53:27;16.70;99.90
29281;DHT22;25048;49.590;11.026;2023-03-23T15:55:55;16.60;99.90
29281;DHT22;25048;49.590;11.026;2023-03-23T15:58:23;16.50;99.90
29281;DHT22;25048;49.590;11.026;2023-03-23T16:00:51;16.50;99.90
29281;DHT22;25048;49.590;11.026;2023-03-23T16:03:24;16.40;99.90
29281;DHT22;25048;49.590;11.026;2023-03-23T16:05:54;16.40;99.90
29281;DHT22;25048;49.590;11.026;2023-03-23T16:08:23;16.40;99.90
29281;DHT22;25048;49.590;11.026;2023-03-23T16:10:51;16.30;99.90
29281;DHT22;25048;49.590;11.026;2023-03-23T16:13:18;16.30;99.90
29281;DHT22;25048;49.590;11.026;2023-03-23T16:15:47;16.10;99.90
29281;DHT22;25048;49.590;11.026;2023-03-23T16:18:20;16.00;99.90
29281;DHT22;25048;49.590;11.026;2023-03-23T16:20:49;16.00;99.90
29281;DHT22;25048;49.590;11.026;2023-03-23T16:23:17;15.90;99.90
29281;DHT22;25048;49.590;11.026;2023-03-23T16:25:44;15.80;99.90
29281;DHT22;25048;49.590;11.026;2023-03-23T16:28:13;15.70;99.90
29281;DHT22;25048;49.590;11.026;2023-03-23T16:30:42;15.70;99.90
29281;DHT22;25048;49.590;11.026;2023-03-23T16:33:10;15.60;99.90
29281;DHT22;25048;49.590;11.026;2023-03-23T16:35:37;15.50;99.90
29281;DHT22;25048;49.590;11.026;2023-03-23T16:38:05;15.40;99.90
29281;DHT22;25048;49.590;11.026;2023-03-23T16:40:33;15.30;99.90
29281;DHT22;25048;49.590;11.026;2023-03-23T16:43:00;15.30;99.90
29281;DHT22;25048;49.590;11.026;2023-03-23T16:45:28;15.20;99.90
29281;DHT22;25048;49.590;11.026;2023-03-23T16:47:55;15.20;99.90
29281;DHT22;25048;49.590;11.026;2023-03-23T16:50:24;15.10;99.90
29281;DHT22;25048;49.590;11.026;2023-03-23T16:52:52;15.00;99.90
29281;DHT22;25048;49.590;11.026;2023-03-23T16:55:19;15.00;99.90
29281;DHT22;25048;49.590;11.026;2023-03-23T16:57:47;15.00;99.90